Challenger — WDC2588 — position and weather

sailwx.info

Track history (hours):
 
Tides and Currents Weather Stations Pressure Air Temp Water Temp Dewpoint Dewpoint Depression Visibility Wind Speed Wind Dir Waves Ship Positions

Challenger

Owner: Kirby Inland Marine LP, Houston, TX. More information available from US FCC via Universal Licensing System and Coast Guard Vessel Documentation Center.

Last reported at 2018-Jan-22 12:35 UTC. Time now 2018-Jan-24 11:09 UTC.
Position N 28°19' W 096°40'.

Length 206 m; draft 3 m.

Type: . MMSI: 366995320.

Date/timePositionNaut miles runAvg speedWind from/ knotsBaromVisibWave heightAir tempDewpointWater temp
2018-Jan-22 12:35N 28°19' W 096°40'0 0.0
2018-Jan-22 12:26N 28°19' W 096°40'10 0.7
2018-Jan-21 20:46N 28°13' W 096°49'3 4.6
2018-Jan-21 20:11N 28°11' W 096°51'1 5.5
2018-Jan-21 19:59N 28°10' W 096°52'3 5.6
2018-Jan-21 19:29N 28°08' W 096°55'3 5.5
2018-Jan-21 18:57N 28°06' W 096°57'3 5.8
2018-Jan-21 18:28N 28°04' W 096°58'3 5.9
2018-Jan-21 17:59N 28°01' W 097°00'3 5.8
2018-Jan-21 17:29N 27°59' W 097°02'3 5.4
2018-Jan-21 16:59N 27°57' W 097°04'3 5.2
2018-Jan-21 16:30N 27°54' W 097°03'2 3.7
2018-Jan-21 15:58N 27°52' W 097°03'0 0.0
2018-Jan-21 15:28N 27°52' W 097°03'0 0.0
2018-Jan-21 14:58N 27°52' W 097°03'0 0.0
2018-Jan-21 14:25N 27°52' W 097°03'0 0.0
2018-Jan-21 13:52N 27°52' W 097°03'0 0.0
2018-Jan-21 13:28N 27°52' W 097°03'0 0.0
2018-Jan-21 12:58N 27°52' W 097°03'0 0.0
2018-Jan-21 12:28N 27°52' W 097°03'0 0.0
2018-Jan-21 11:58N 27°52' W 097°03'0 0.0
2018-Jan-21 11:31N 27°52' W 097°03'0 0.0
2018-Jan-21 11:01N 27°52' W 097°03'0 0.0
2018-Jan-21 10:30N 27°52' W 097°03'0 0.0
2018-Jan-21 10:00N 27°52' W 097°03'0 0.0
2018-Jan-21 09:21N 27°52' W 097°03'0 0.0
2018-Jan-21 08:57N 27°52' W 097°03'0 0.0
2018-Jan-21 08:30N 27°52' W 097°03'0 0.0
2018-Jan-21 08:00N 27°52' W 097°03'0 0.0
2018-Jan-21 07:30N 27°52' W 097°03'0 0.0
2018-Jan-21 07:00N 27°52' W 097°03'0 0.0
2018-Jan-21 06:27N 27°52' W 097°03'0 0.0
2018-Jan-21 06:00N 27°52' W 097°03'0 0.0
2018-Jan-21 05:30N 27°52' W 097°03'0 0.0
2018-Jan-21 05:00N 27°52' W 097°03'0 0.0
2018-Jan-21 04:30N 27°52' W 097°03'0 0.0
2018-Jan-21 04:00N 27°52' W 097°03'0 0.0
2018-Jan-21 03:30N 27°52' W 097°03'0 0.0
2018-Jan-21 03:00N 27°52' W 097°03'0 0.0
2018-Jan-21 02:30N 27°52' W 097°03'0 0.0
2018-Jan-21 02:00N 27°52' W 097°03'1 2.2
2018-Jan-21 01:30N 27°51' W 097°03'0 0.0
2018-Jan-21 01:00N 27°51' W 097°03'1 1.3
2018-Jan-21 00:30N 27°51' W 097°04'3 5.1
2018-Jan-21 00:00N 27°50' W 097°06'3 5.7
2018-Jan-20 23:24N 27°49' W 097°10'4 6.3
2018-Jan-20 22:44N 27°49' W 097°15'  
2018-Jan-12 15:00N 30°05' W 093°20'1 2.9
2018-Jan-12 14:31N 30°06' W 093°18'1 1.4
2018-Jan-12 14:01N 30°06' W 093°19'3 6.0
2018-Jan-12 13:31N 30°04' W 093°21'1 1.5
2018-Jan-12 12:59N 30°04' W 093°22'  
Track history (hours):
 
Tides and Currents Weather Stations Pressure Air Temp Water Temp Dewpoint Dewpoint Depression Visibility Wind Speed Wind Dir Waves Ship Positions

Challenger

Owner: Kirby Inland Marine LP, Houston, TX. More information available from US FCC via Universal Licensing System and Coast Guard Vessel Documentation Center.

Last reported at 2018-Jan-22 12:35 UTC. Time now 2018-Jan-24 11:09 UTC.
Position N 28°19' W 096°40'.

Length 206 m; draft 3 m.

Type: . MMSI: 366995320.

Date/timePositionNaut miles runAvg speedWind from/ knotsBaromVisibWave heightAir tempDewpointWater temp
2018-Jan-22 12:35N 28°19' W 096°40'0 0.0
2018-Jan-22 12:26N 28°19' W 096°40'10 0.7
2018-Jan-21 20:46N 28°13' W 096°49'3 4.6
2018-Jan-21 20:11N 28°11' W 096°51'1 5.5
2018-Jan-21 19:59N 28°10' W 096°52'3 5.6
2018-Jan-21 19:29N 28°08' W 096°55'3 5.5
2018-Jan-21 18:57N 28°06' W 096°57'3 5.8
2018-Jan-21 18:28N 28°04' W 096°58'3 5.9
2018-Jan-21 17:59N 28°01' W 097°00'3 5.8
2018-Jan-21 17:29N 27°59' W 097°02'3 5.4
2018-Jan-21 16:59N 27°57' W 097°04'3 5.2
2018-Jan-21 16:30N 27°54' W 097°03'2 3.7
2018-Jan-21 15:58N 27°52' W 097°03'0 0.0
2018-Jan-21 15:28N 27°52' W 097°03'0 0.0
2018-Jan-21 14:58N 27°52' W 097°03'0 0.0
2018-Jan-21 14:25N 27°52' W 097°03'0 0.0
2018-Jan-21 13:52N 27°52' W 097°03'0 0.0
2018-Jan-21 13:28N 27°52' W 097°03'0 0.0
2018-Jan-21 12:58N 27°52' W 097°03'0 0.0
2018-Jan-21 12:28N 27°52' W 097°03'0 0.0
2018-Jan-21 11:58N 27°52' W 097°03'0 0.0
2018-Jan-21 11:31N 27°52' W 097°03'0 0.0
2018-Jan-21 11:01N 27°52' W 097°03'0 0.0
2018-Jan-21 10:30N 27°52' W 097°03'0 0.0
2018-Jan-21 10:00N 27°52' W 097°03'0 0.0
2018-Jan-21 09:21N 27°52' W 097°03'0 0.0
2018-Jan-21 08:57N 27°52' W 097°03'0 0.0
2018-Jan-21 08:30N 27°52' W 097°03'0 0.0
2018-Jan-21 08:00N 27°52' W 097°03'0 0.0
2018-Jan-21 07:30N 27°52' W 097°03'0 0.0
2018-Jan-21 07:00N 27°52' W 097°03'0 0.0
2018-Jan-21 06:27N 27°52' W 097°03'0 0.0
2018-Jan-21 06:00N 27°52' W 097°03'0 0.0
2018-Jan-21 05:30N 27°52' W 097°03'0 0.0
2018-Jan-21 05:00N 27°52' W 097°03'0 0.0
2018-Jan-21 04:30N 27°52' W 097°03'0 0.0
2018-Jan-21 04:00N 27°52' W 097°03'0 0.0
2018-Jan-21 03:30N 27°52' W 097°03'0 0.0
2018-Jan-21 03:00N 27°52' W 097°03'0 0.0
2018-Jan-21 02:30N 27°52' W 097°03'0 0.0
2018-Jan-21 02:00N 27°52' W 097°03'1 2.2
2018-Jan-21 01:30N 27°51' W 097°03'0 0.0
2018-Jan-21 01:00N 27°51' W 097°03'1 1.3
2018-Jan-21 00:30N 27°51' W 097°04'3 5.1
2018-Jan-21 00:00N 27°50' W 097°06'3 5.7
2018-Jan-20 23:24N 27°49' W 097°10'4 6.3
2018-Jan-20 22:44N 27°49' W 097°15'  
2018-Jan-12 15:00N 30°05' W 093°20'1 2.9
2018-Jan-12 14:31N 30°06' W 093°18'1 1.4
2018-Jan-12 14:01N 30°06' W 093°19'3 6.0
2018-Jan-12 13:31N 30°04' W 093°21'1 1.5
2018-Jan-12 12:59N 30°04' W 093°22'  

Dump ship's entire track history